TimeEST,TemperatureF,Dew PointF,Humidity,Sea Level PressureIn,VisibilityMPH,Wind Direction,Wind SpeedMPH,Gust SpeedMPH,PrecipitationIn,Events,Conditions,WindDirDegrees,DateUTC
12:52 AM,44.1,30.0,58,29.90,10.0,East,3.5,-,N/A,,Overcast,90,2012-11-07 05:52:00
1:52 AM,43.0,30.9,62,29.88,10.0,East,4.6,-,N/A,,Overcast,80,2012-11-07 06:52:00
2:52 AM,42.1,30.9,65,29.88,10.0,WSW,3.5,-,N/A,,Overcast,250,2012-11-07 07:52:00
3:52 AM,42.1,32.0,67,29.88,10.0,Calm,Calm,-,N/A,,Overcast,0,2012-11-07 08:52:00
4:52 AM,43.0,32.0,65,29.88,10.0,NNW,3.5,-,N/A,,Overcast,330,2012-11-07 09:52:00
5:52 AM,42.1,33.1,70,29.89,9.0,North,5.8,-,N/A,,Overcast,10,2012-11-07 10:52:00
6:52 AM,42.1,32.0,67,29.91,9.0,North,5.8,-,N/A,,Mostly Cloudy,10,2012-11-07 11:52:00
7:52 AM,42.1,30.9,65,29.92,8.0,NNE,4.6,-,N/A,,Overcast,30,2012-11-07 12:52:00
8:52 AM,43.0,30.9,62,29.94,8.0,North,5.8,-,N/A,,Overcast,360,2012-11-07 13:52:00
9:52 AM,45.0,30.9,58,29.95,8.0,North,4.6,-,N/A,,Scattered Clouds,350,2012-11-07 14:52:00
10:52 AM,48.9,28.9,46,29.96,10.0,NNE,9.2,-,N/A,,Mostly Cloudy,20,2012-11-07 15:52:00
11:52 AM,50.0,28.0,43,29.97,10.0,North,11.5,17.3,N/A,,Mostly Cloudy,360,2012-11-07 16:52:00
12:52 PM,51.1,28.0,41,29.95,10.0,North,9.2,-,N/A,,Partly Cloudy,360,2012-11-07 17:52:00
1:52 PM,51.1,28.0,41,29.94,10.0,North,5.8,-,N/A,,Clear,10,2012-11-07 18:52:00
2:52 PM,53.1,28.9,40,29.95,10.0,North,9.2,-,N/A,,Partly Cloudy,10,2012-11-07 19:52:00
3:52 PM,53.1,28.0,38,29.97,10.0,North,10.4,-,N/A,,Partly Cloudy,350,2012-11-07 20:52:00
4:52 PM,51.1,28.0,41,29.99,10.0,NNW,8.1,-,N/A,,Clear,330,2012-11-07 21:52:00
5:52 PM,46.0,28.0,50,30.02,10.0,NW,8.1,-,N/A,,Clear,320,2012-11-07 22:52:00
6:52 PM,46.0,30.9,56,30.05,10.0,NNW,9.2,-,N/A,,Clear,340,2012-11-07 23:52:00
7:52 PM,43.0,34.0,71,30.07,7.0,North,10.4,-,N/A,,Clear,360,2012-11-08 00:52:00
8:52 PM,41.0,33.1,73,30.09,6.0,NNW,9.2,-,N/A,,Haze,330,2012-11-08 01:52:00
9:52 PM,39.0,33.1,79,30.11,6.0,NNW,3.5,-,N/A,,Haze,340,2012-11-08 02:52:00
10:52 PM,37.9,32.0,79,30.11,5.0,North,6.9,-,N/A,,Haze,360,2012-11-08 03:52:00
11:52 PM,37.9,32.0,79,30.12,6.0,North,5.8,-,N/A,,Haze,350,2012-11-08 04:52:00